METAR Data
IDs: Format: Raw Decoded Include TAF

Data at: 0239 UTC 29 Nov 2020

METAR for:KHPT (Hampton Muni, IA, US)
Text:KHPT 290235Z AUTO 22010KT 10SM CLR 03/01 A2995 RMK AO2
Temperature: 3.0°C ( 37°F)
Dewpoint: 1.0°C ( 34°F) [RH = 87%]
Pressure (altimeter):29.95 inches Hg (1014.3 mb)
Winds:from the SW (220 degrees) at 12 MPH (10 knots; 5.1 m/s)
Visibility:10 or more sm (16+ km)
Ceiling:at least 12,000 feet AGL
Clouds:sky clear below 12,000 feet AGL
QC Flag:automated observation with no human augmentation